sensor_id;sensor_type;location;lat;lon;timestamp;pressure;altitude;pressure_sealevel;temperature;humidity
49709;BME280;35601;55.902;13.606;2022-12-29T00:00:09;99226.74;;;2.17;100.00
49709;BME280;35601;55.902;13.606;2022-12-29T00:02:30;99225.99;;;2.14;100.00
49709;BME280;35601;55.902;13.606;2022-12-29T00:04:55;99222.96;;;2.23;100.00
49709;BME280;35601;55.902;13.606;2022-12-29T00:07:20;99214.69;;;2.22;100.00
49709;BME280;35601;55.902;13.606;2022-12-29T00:09:45;99216.66;;;2.10;100.00
49709;BME280;35601;55.902;13.606;2022-12-29T00:12:11;99208.76;;;2.26;100.00
49709;BME280;35601;55.902;13.606;2022-12-29T00:14:36;99207.01;;;2.15;100.00
49709;BME280;35601;55.902;13.606;2022-12-29T00:17:02;99206.30;;;2.25;100.00
49709;BME280;35601;55.902;13.606;2022-12-29T00:19:27;99197.08;;;2.12;100.00
49709;BME280;35601;55.902;13.606;2022-12-29T00:21:52;99194.22;;;1.93;100.00
49709;BME280;35601;55.902;13.606;2022-12-29T00:24:21;99190.49;;;2.30;100.00
49709;BME280;35601;55.902;13.606;2022-12-29T00:26:44;99186.53;;;2.11;100.00
49709;BME280;35601;55.902;13.606;2022-12-29T00:29:09;99188.97;;;2.29;100.00
49709;BME280;35601;55.902;13.606;2022-12-29T00:31:34;99187.13;;;2.00;100.00
49709;BME280;35601;55.902;13.606;2022-12-29T00:33:59;99190.76;;;1.86;100.00
49709;BME280;35601;55.902;13.606;2022-12-29T00:36:27;99187.37;;;2.23;100.00
49709;BME280;35601;55.902;13.606;2022-12-29T00:38:53;99191.43;;;2.08;100.00
49709;BME280;35601;55.902;13.606;2022-12-29T00:41:15;99189.76;;;2.09;100.00
49709;BME280;35601;55.902;13.606;2022-12-29T00:43:41;99191.35;;;1.99;100.00
49709;BME280;35601;55.902;13.606;2022-12-29T00:46:06;99189.68;;;1.99;100.00
49709;BME280;35601;55.902;13.606;2022-12-29T00:48:31;99181.07;;;1.91;100.00
49709;BME280;35601;55.902;13.606;2022-12-29T00:50:56;99181.18;;;1.94;100.00
49709;BME280;35601;55.902;13.606;2022-12-29T00:53:21;99178.50;;;1.99;100.00
49709;BME280;35601;55.902;13.606;2022-12-29T00:55:47;99176.03;;;1.62;100.00
49709;BME280;35601;55.902;13.606;2022-12-29T00:58:13;99170.64;;;1.92;100.00
49709;BME280;35601;55.902;13.606;2022-12-29T01:00:38;99170.44;;;1.94;100.00
49709;BME280;35601;55.902;13.606;2022-12-29T01:03:03;99167.12;;;1.90;100.00
49709;BME280;35601;55.902;13.606;2022-12-29T01:05:28;99163.12;;;1.78;100.00
49709;BME280;35601;55.902;13.606;2022-12-29T01:07:54;99156.90;;;1.93;100.00
49709;BME280;35601;55.902;13.606;2022-12-29T01:10:19;99149.10;;;1.72;100.00
49709;BME280;35601;55.902;13.606;2022-12-29T01:12:45;99146.36;;;2.01;100.00
49709;BME280;35601;55.902;13.606;2022-12-29T01:15:12;99144.93;;;1.71;100.00
49709;BME280;35601;55.902;13.606;2022-12-29T01:17:36;99143.25;;;1.63;100.00
49709;BME280;35601;55.902;13.606;2022-12-29T01:20:02;99140.54;;;1.76;100.00
49709;BME280;35601;55.902;13.606;2022-12-29T01:22:27;99139.04;;;1.81;100.00
49709;BME280;35601;55.902;13.606;2022-12-29T01:24:52;99129.88;;;2.00;100.00
49709;BME280;35601;55.902;13.606;2022-12-29T01:27:17;99135.35;;;1.90;100.00
49709;BME280;35601;55.902;13.606;2022-12-29T01:29:43;99126.90;;;1.85;100.00
49709;BME280;35601;55.902;13.606;2022-12-29T01:32:08;99126.36;;;2.01;100.00
49709;BME280;35601;55.902;13.606;2022-12-29T01:34:33;99121.40;;;2.10;100.00
49709;BME280;35601;55.902;13.606;2022-12-29T01:36:59;99120.43;;;1.89;100.00
49709;BME280;35601;55.902;13.606;2022-12-29T01:39:24;99112.54;;;2.04;100.00
49709;BME280;35601;55.902;13.606;2022-12-29T01:41:49;99110.09;;;1.71;100.00
49709;BME280;35601;55.902;13.606;2022-12-29T01:46:41;99096.52;;;1.51;100.00
49709;BME280;35601;55.902;13.606;2022-12-29T01:49:11;99091.67;;;2.04;100.00
49709;BME280;35601;55.902;13.606;2022-12-29T01:51:32;99091.10;;;2.11;100.00
49709;BME280;35601;55.902;13.606;2022-12-29T01:53:57;99090.86;;;1.83;100.00
49709;BME280;35601;55.902;13.606;2022-12-29T01:56:21;99089.50;;;1.84;100.00
49709;BME280;35601;55.902;13.606;2022-12-29T01:58:48;99080.80;;;1.81;100.00
49709;BME280;35601;55.902;13.606;2022-12-29T02:01:12;99078.39;;;1.68;100.00
49709;BME280;35601;55.902;13.606;2022-12-29T02:03:37;99075.04;;;1.76;100.00
49709;BME280;35601;55.902;13.606;2022-12-29T02:06:04;99067.79;;;1.74;100.00
49709;BME280;35601;55.902;13.606;2022-12-29T02:08:29;99063.88;;;1.86;100.00
49709;BME280;35601;55.902;13.606;2022-12-29T02:10:53;99058.10;;;1.93;100.00
49709;BME280;35601;55.902;13.606;2022-12-29T02:13:18;99053.04;;;1.74;100.00
49709;BME280;35601;55.902;13.606;2022-12-29T02:15:51;99042.61;;;1.76;100.00
49709;BME280;35601;55.902;13.606;2022-12-29T02:18:21;99047.05;;;1.84;100.00
49709;BME280;35601;55.902;13.606;2022-12-29T02:20:50;99041.31;;;2.01;100.00
49709;BME280;35601;55.902;13.606;2022-12-29T02:23:11;99036.17;;;1.65;100.00
49709;BME280;35601;55.902;13.606;2022-12-29T02:25:35;99034.74;;;1.79;100.00
49709;BME280;35601;55.902;13.606;2022-12-29T02:27:55;99031.24;;;1.76;100.00
49709;BME280;35601;55.902;13.606;2022-12-29T02:30:33;99028.85;;;1.83;100.00
49709;BME280;35601;55.902;13.606;2022-12-29T02:32:48;99026.53;;;1.78;100.00
49709;BME280;35601;55.902;13.606;2022-12-29T02:35:10;99026.49;;;1.85;100.00
49709;BME280;35601;55.902;13.606;2022-12-29T02:37:38;99017.21;;;1.74;100.00
49709;BME280;35601;55.902;13.606;2022-12-29T02:40:01;99014.19;;;1.90;100.00
49709;BME280;35601;55.902;13.606;2022-12-29T02:42:27;99008.36;;;1.63;100.00
49709;BME280;35601;55.902;13.606;2022-12-29T02:44:53;98996.28;;;1.70;100.00
49709;BME280;35601;55.902;13.606;2022-12-29T02:47:17;98994.22;;;1.66;100.00
49709;BME280;35601;55.902;13.606;2022-12-29T02:49:42;98995.70;;;1.89;100.00
49709;BME280;35601;55.902;13.606;2022-12-29T02:52:04;98993.01;;;1.70;100.00
49709;BME280;35601;55.902;13.606;2022-12-29T02:54:27;98992.68;;;1.90;100.00
49709;BME280;35601;55.902;13.606;2022-12-29T02:56:53;98984.43;;;1.71;100.00
49709;BME280;35601;55.902;13.606;2022-12-29T02:59:18;98980.61;;;1.76;100.00
49709;BME280;35601;55.902;13.606;2022-12-29T03:02:01;98985.16;;;1.76;100.00
49709;BME280;35601;55.902;13.606;2022-12-29T03:04:19;98982.20;;;1.67;100.00
49709;BME280;35601;55.902;13.606;2022-12-29T03:06:41;98974.27;;;1.42;100.00
49709;BME280;35601;55.902;13.606;2022-12-29T03:09:05;98971.38;;;1.36;100.00
49709;BME280;35601;55.902;13.606;2022-12-29T03:11:28;98961.62;;;1.48;100.00
49709;BME280;35601;55.902;13.606;2022-12-29T03:13:52;98960.44;;;1.67;100.00
49709;BME280;35601;55.902;13.606;2022-12-29T03:16:21;98957.83;;;1.93;100.00
49709;BME280;35601;55.902;13.606;2022-12-29T03:18:45;98955.29;;;1.79;100.00
49709;BME280;35601;55.902;13.606;2022-12-29T03:21:10;98952.90;;;2.04;100.00
49709;BME280;35601;55.902;13.606;2022-12-29T03:23:32;98951.36;;;2.08;100.00
49709;BME280;35601;55.902;13.606;2022-12-29T03:25:58;98949.24;;;2.04;100.00
49709;BME280;35601;55.902;13.606;2022-12-29T03:28:24;98949.71;;;1.81;100.00
49709;BME280;35601;55.902;13.606;2022-12-29T03:30:47;98940.24;;;1.88;100.00
49709;BME280;35601;55.902;13.606;2022-12-29T03:33:14;98943.74;;;2.00;100.00
49709;BME280;35601;55.902;13.606;2022-12-29T03:35:40;98940.83;;;1.70;100.00
49709;BME280;35601;55.902;13.606;2022-12-29T03:38:08;98936.50;;;1.59;100.00
49709;BME280;35601;55.902;13.606;2022-12-29T03:40:29;98927.98;;;1.79;100.00
49709;BME280;35601;55.902;13.606;2022-12-29T03:42:53;98931.01;;;1.97;100.00
49709;BME280;35601;55.902;13.606;2022-12-29T03:45:18;98920.64;;;1.62;100.00
49709;BME280;35601;55.902;13.606;2022-12-29T03:47:43;98922.24;;;1.86;100.00
49709;BME280;35601;55.902;13.606;2022-12-29T03:50:11;98925.42;;;1.66;100.00
49709;BME280;35601;55.902;13.606;2022-12-29T03:52:34;98923.73;;;1.91;100.00
49709;BME280;35601;55.902;13.606;2022-12-29T03:55:00;98928.77;;;1.73;100.00
49709;BME280;35601;55.902;13.606;2022-12-29T03:57:25;98919.31;;;1.70;100.00
49709;BME280;35601;55.902;13.606;2022-12-29T03:59:50;98911.10;;;1.41;100.00
49709;BME280;35601;55.902;13.606;2022-12-29T04:02:15;98909.30;;;1.38;100.00
49709;BME280;35601;55.902;13.606;2022-12-29T04:04:41;98905.32;;;1.54;100.00
49709;BME280;35601;55.902;13.606;2022-12-29T04:07:06;98903.98;;;1.57;100.00
49709;BME280;35601;55.902;13.606;2022-12-29T04:09:31;98906.95;;;1.89;100.00
49709;BME280;35601;55.902;13.606;2022-12-29T04:11:56;98903.48;;;1.85;100.00
49709;BME280;35601;55.902;13.606;2022-12-29T04:14:22;98900.80;;;1.95;100.00
49709;BME280;35601;55.902;13.606;2022-12-29T04:16:47;98898.29;;;1.99;100.00
49709;BME280;35601;55.902;13.606;2022-12-29T04:19:12;98899.93;;;2.02;100.00
49709;BME280;35601;55.902;13.606;2022-12-29T04:21:37;98898.75;;;1.78;100.00
49709;BME280;35601;55.902;13.606;2022-12-29T04:26:29;98884.59;;;2.19;100.00
49709;BME280;35601;55.902;13.606;2022-12-29T04:28:54;98880.25;;;2.04;100.00
49709;BME280;35601;55.902;13.606;2022-12-29T04:31:19;98882.49;;;2.21;100.00
49709;BME280;35601;55.902;13.606;2022-12-29T04:33:44;98886.29;;;2.33;100.00
49709;BME280;35601;55.902;13.606;2022-12-29T04:36:10;98886.61;;;1.91;100.00
49709;BME280;35601;55.902;13.606;2022-12-29T04:38:35;98881.61;;;2.33;100.00
49709;BME280;35601;55.902;13.606;2022-12-29T04:41:02;98879.63;;;1.86;100.00
49709;BME280;35601;55.902;13.606;2022-12-29T04:43:27;98880.29;;;2.12;100.00
49709;BME280;35601;55.902;13.606;2022-12-29T04:45:52;98870.75;;;2.26;100.00
49709;BME280;35601;55.902;13.606;2022-12-29T04:48:17;98871.49;;;2.11;100.00
49709;BME280;35601;55.902;13.606;2022-12-29T04:50:42;98873.71;;;2.06;100.00
49709;BME280;35601;55.902;13.606;2022-12-29T04:53:08;98884.95;;;2.10;100.00
49709;BME280;35601;55.902;13.606;2022-12-29T04:55:34;98884.30;;;2.09;100.00
49709;BME280;35601;55.902;13.606;2022-12-29T04:57:59;98876.93;;;2.38;100.00
49709;BME280;35601;55.902;13.606;2022-12-29T05:00:25;98864.62;;;2.06;100.00
49709;BME280;35601;55.902;13.606;2022-12-29T05:02:51;98870.04;;;2.05;100.00
49709;BME280;35601;55.902;13.606;2022-12-29T05:05:16;98869.49;;;1.88;100.00
49709;BME280;35601;55.902;13.606;2022-12-29T05:07:42;98871.64;;;2.15;100.00
49709;BME280;35601;55.902;13.606;2022-12-29T05:10:08;98877.78;;;2.40;100.00
49709;BME280;35601;55.902;13.606;2022-12-29T05:12:35;98881.04;;;2.36;100.00
49709;BME280;35601;55.902;13.606;2022-12-29T05:15:00;98875.34;;;2.34;100.00
49709;BME280;35601;55.902;13.606;2022-12-29T05:17:26;98874.10;;;2.21;100.00
49709;BME280;35601;55.902;13.606;2022-12-29T05:19:51;98885.66;;;2.07;100.00
49709;BME280;35601;55.902;13.606;2022-12-29T05:22:17;98890.64;;;2.34;100.00
49709;BME280;35601;55.902;13.606;2022-12-29T05:24:42;98885.00;;;2.03;100.00
49709;BME280;35601;55.902;13.606;2022-12-29T05:27:07;98877.65;;;2.37;100.00
49709;BME280;35601;55.902;13.606;2022-12-29T05:29:32;98869.70;;;2.58;100.00
49709;BME280;35601;55.902;13.606;2022-12-29T05:31:58;98865.64;;;2.33;100.00
49709;BME280;35601;55.902;13.606;2022-12-29T05:34:23;98866.75;;;2.51;100.00
49709;BME280;35601;55.902;13.606;2022-12-29T05:36:48;98862.20;;;2.80;100.00
49709;BME280;35601;55.902;13.606;2022-12-29T05:39:13;98859.23;;;2.65;100.00
49709;BME280;35601;55.902;13.606;2022-12-29T05:41:39;98858.53;;;2.65;100.00
49709;BME280;35601;55.902;13.606;2022-12-29T05:44:04;98860.81;;;2.47;100.00
49709;BME280;35601;55.902;13.606;2022-12-29T05:46:30;98848.18;;;2.61;100.00
49709;BME280;35601;55.902;13.606;2022-12-29T05:48:55;98839.86;;;2.66;100.00
49709;BME280;35601;55.902;13.606;2022-12-29T05:51:21;98845.56;;;2.69;100.00
49709;BME280;35601;55.902;13.606;2022-12-29T05:53:47;98841.90;;;2.69;100.00
49709;BME280;35601;55.902;13.606;2022-12-29T05:56:12;98845.47;;;2.49;100.00
49709;BME280;35601;55.902;13.606;2022-12-29T05:58:37;98842.23;;;1.72;100.00
49709;BME280;35601;55.902;13.606;2022-12-29T06:01:03;98838.88;;;2.27;100.00
49709;BME280;35601;55.902;13.606;2022-12-29T06:03:29;98840.53;;;2.84;100.00
49709;BME280;35601;55.902;13.606;2022-12-29T06:05:54;98834.79;;;2.61;100.00
49709;BME280;35601;55.902;13.606;2022-12-29T06:08:20;98833.77;;;2.54;100.00
49709;BME280;35601;55.902;13.606;2022-12-29T06:10:46;98822.75;;;2.62;100.00
49709;BME280;35601;55.902;13.606;2022-12-29T06:13:12;98831.74;;;2.62;100.00
49709;BME280;35601;55.902;13.606;2022-12-29T06:15:37;98828.68;;;2.61;100.00
49709;BME280;35601;55.902;13.606;2022-12-29T06:18:02;98822.36;;;2.94;100.00
49709;BME280;35601;55.902;13.606;2022-12-29T06:20:28;98820.82;;;2.47;100.00
49709;BME280;35601;55.902;13.606;2022-12-29T06:22:53;98817.14;;;2.64;100.00
49709;BME280;35601;55.902;13.606;2022-12-29T06:25:18;98817.72;;;2.75;100.00
49709;BME280;35601;55.902;13.606;2022-12-29T06:27:44;98819.01;;;2.79;100.00
49709;BME280;35601;55.902;13.606;2022-12-29T06:30:11;98818.23;;;2.72;100.00
49709;BME280;35601;55.902;13.606;2022-12-29T06:32:35;98820.25;;;2.69;100.00
49709;BME280;35601;55.902;13.606;2022-12-29T06:35:01;98810.50;;;2.73;100.00
49709;BME280;35601;55.902;13.606;2022-12-29T06:37:27;98818.25;;;2.67;100.00
49709;BME280;35601;55.902;13.606;2022-12-29T06:39:52;98819.04;;;2.84;100.00
49709;BME280;35601;55.902;13.606;2022-12-29T06:42:18;98808.51;;;2.61;100.00
49709;BME280;35601;55.902;13.606;2022-12-29T06:44:43;98810.19;;;2.66;100.00
49709;BME280;35601;55.902;13.606;2022-12-29T06:47:08;98812.45;;;2.84;100.00
49709;BME280;35601;55.902;13.606;2022-12-29T06:49:34;98812.66;;;2.44;100.00
49709;BME280;35601;55.902;13.606;2022-12-29T06:52:00;98820.07;;;2.83;100.00
49709;BME280;35601;55.902;13.606;2022-12-29T06:54:25;98818.51;;;2.75;100.00
49709;BME280;35601;55.902;13.606;2022-12-29T06:56:51;98824.50;;;2.98;100.00
49709;BME280;35601;55.902;13.606;2022-12-29T06:59:17;98811.32;;;2.82;100.00
49709;BME280;35601;55.902;13.606;2022-12-29T07:01:42;98815.98;;;2.93;100.00
49709;BME280;35601;55.902;13.606;2022-12-29T07:04:08;98818.45;;;3.16;100.00
49709;BME280;35601;55.902;13.606;2022-12-29T07:06:34;98819.89;;;3.00;100.00
49709;BME280;35601;55.902;13.606;2022-12-29T07:08:59;98814.27;;;2.99;100.00
49709;BME280;35601;55.902;13.606;2022-12-29T07:11:25;98818.46;;;3.17;100.00
49709;BME280;35601;55.902;13.606;2022-12-29T07:13:51;98814.98;;;2.95;100.00
49709;BME280;35601;55.902;13.606;2022-12-29T07:16:16;98817.31;;;3.10;100.00
49709;BME280;35601;55.902;13.606;2022-12-29T07:18:41;98815.52;;;3.04;100.00
49709;BME280;35601;55.902;13.606;2022-12-29T07:21:06;98812.75;;;3.03;100.00
49709;BME280;35601;55.902;13.606;2022-12-29T07:23:32;98820.79;;;2.79;100.00
49709;BME280;35601;55.902;13.606;2022-12-29T07:26:00;98817.89;;;2.87;100.00
49709;BME280;35601;55.902;13.606;2022-12-29T07:28:23;98819.32;;;2.95;100.00
49709;BME280;35601;55.902;13.606;2022-12-29T07:30:48;98817.64;;;2.76;100.00
49709;BME280;35601;55.902;13.606;2022-12-29T07:33:14;98810.61;;;3.05;100.00
49709;BME280;35601;55.902;13.606;2022-12-29T07:35:39;98809.13;;;3.26;100.00
49709;BME280;35601;55.902;13.606;2022-12-29T07:38:04;98815.31;;;3.06;100.00
49709;BME280;35601;55.902;13.606;2022-12-29T07:40:30;98810.24;;;3.19;100.00
49709;BME280;35601;55.902;13.606;2022-12-29T07:42:56;98812.09;;;3.14;100.00
49709;BME280;35601;55.902;13.606;2022-12-29T07:45:22;98811.37;;;3.09;100.00
49709;BME280;35601;55.902;13.606;2022-12-29T07:47:48;98808.51;;;3.28;100.00
49709;BME280;35601;55.902;13.606;2022-12-29T07:50:13;98802.26;;;3.13;100.00
49709;BME280;35601;55.902;13.606;2022-12-29T07:52:38;98801.26;;;2.94;100.00
49709;BME280;35601;55.902;13.606;2022-12-29T07:55:04;98798.34;;;3.16;100.00
49709;BME280;35601;55.902;13.606;2022-12-29T07:57:29;98795.48;;;2.95;100.00
49709;BME280;35601;55.902;13.606;2022-12-29T07:59:55;98796.46;;;3.40;100.00
49709;BME280;35601;55.902;13.606;2022-12-29T08:02:21;98789.15;;;3.04;100.00
49709;BME280;35601;55.902;13.606;2022-12-29T08:04:46;98791.53;;;3.31;100.00
49709;BME280;35601;55.902;13.606;2022-12-29T08:07:12;98784.88;;;3.14;100.00
49709;BME280;35601;55.902;13.606;2022-12-29T08:09:37;98778.61;;;3.09;100.00
49709;BME280;35601;55.902;13.606;2022-12-29T08:12:02;98775.35;;;3.14;100.00
49709;BME280;35601;55.902;13.606;2022-12-29T08:14:28;98778.34;;;3.29;100.00
49709;BME280;35601;55.902;13.606;2022-12-29T08:16:53;98774.98;;;3.26;100.00
49709;BME280;35601;55.902;13.606;2022-12-29T08:19:19;98771.43;;;3.39;100.00
49709;BME280;35601;55.902;13.606;2022-12-29T08:21:44;98772.68;;;3.27;100.00
49709;BME280;35601;55.902;13.606;2022-12-29T08:24:10;98772.79;;;3.23;100.00
49709;BME280;35601;55.902;13.606;2022-12-29T08:26:36;98771.72;;;3.13;100.00
49709;BME280;35601;55.902;13.606;2022-12-29T08:29:01;98780.93;;;3.20;100.00
49709;BME280;35601;55.902;13.606;2022-12-29T08:31:27;98780.88;;;3.19;100.00
49709;BME280;35601;55.902;13.606;2022-12-29T08:33:53;98783.15;;;3.26;100.00
49709;BME280;35601;55.902;13.606;2022-12-29T08:36:19;98786.15;;;3.03;100.00
49709;BME280;35601;55.902;13.606;2022-12-29T08:38:44;98778.70;;;2.96;100.00
49709;BME280;35601;55.902;13.606;2022-12-29T08:41:09;98783.86;;;2.99;100.00
49709;BME280;35601;55.902;13.606;2022-12-29T08:43:34;98787.15;;;2.98;100.00
49709;BME280;35601;55.902;13.606;2022-12-29T08:46:00;98787.41;;;2.99;100.00
49709;BME280;35601;55.902;13.606;2022-12-29T08:48:25;98791.53;;;3.14;100.00
49709;BME280;35601;55.902;13.606;2022-12-29T08:50:50;98785.14;;;2.69;100.00
49709;BME280;35601;55.902;13.606;2022-12-29T08:53:16;98782.87;;;2.79;100.00
49709;BME280;35601;55.902;13.606;2022-12-29T08:55:41;98782.55;;;2.97;100.00
49709;BME280;35601;55.902;13.606;2022-12-29T08:58:06;98781.85;;;3.31;100.00
49709;BME280;35601;55.902;13.606;2022-12-29T09:00:31;98775.39;;;2.93;100.00
49709;BME280;35601;55.902;13.606;2022-12-29T09:02:56;98779.31;;;3.09;100.00
49709;BME280;35601;55.902;13.606;2022-12-29T09:05:22;98778.72;;;2.77;100.00
49709;BME280;35601;55.902;13.606;2022-12-29T09:07:47;98779.20;;;2.86;100.00
49709;BME280;35601;55.902;13.606;2022-12-29T09:10:12;98777.65;;;3.24;100.00
49709;BME280;35601;55.902;13.606;2022-12-29T09:12:38;98783.00;;;3.18;100.00
49709;BME280;35601;55.902;13.606;2022-12-29T09:15:04;98774.05;;;3.20;100.00
49709;BME280;35601;55.902;13.606;2022-12-29T09:17:28;98767.57;;;2.97;100.00
49709;BME280;35601;55.902;13.606;2022-12-29T09:19:54;98773.91;;;2.62;100.00
49709;BME280;35601;55.902;13.606;2022-12-29T09:22:19;98769.26;;;3.09;100.00
49709;BME280;35601;55.902;13.606;2022-12-29T09:24:44;98778.76;;;3.37;100.00
49709;BME280;35601;55.902;13.606;2022-12-29T09:27:09;98776.41;;;2.90;100.00
49709;BME280;35601;55.902;13.606;2022-12-29T09:29:35;98777.64;;;3.55;100.00
49709;BME280;35601;55.902;13.606;2022-12-29T09:32:00;98774.09;;;3.28;100.00
49709;BME280;35601;55.902;13.606;2022-12-29T09:34:25;98772.47;;;3.44;100.00
49709;BME280;35601;55.902;13.606;2022-12-29T09:36:50;98775.85;;;3.40;100.00
49709;BME280;35601;55.902;13.606;2022-12-29T09:39:16;98771.04;;;3.24;100.00
49709;BME280;35601;55.902;13.606;2022-12-29T09:41:45;98765.61;;;3.16;100.00
49709;BME280;35601;55.902;13.606;2022-12-29T09:44:11;98768.96;;;3.33;100.00
49709;BME280;35601;55.902;13.606;2022-12-29T09:46:35;98770.06;;;3.42;100.00
49709;BME280;35601;55.902;13.606;2022-12-29T09:49:07;98768.08;;;3.43;100.00
49709;BME280;35601;55.902;13.606;2022-12-29T09:51:23;98768.58;;;3.63;100.00
49709;BME280;35601;55.902;13.606;2022-12-29T09:53:51;98764.11;;;3.83;100.00
49709;BME280;35601;55.902;13.606;2022-12-29T09:56:15;98761.30;;;3.65;100.00
49709;BME280;35601;55.902;13.606;2022-12-29T09:58:42;98765.16;;;3.65;100.00
49709;BME280;35601;55.902;13.606;2022-12-29T10:01:05;98774.17;;;3.45;100.00
49709;BME280;35601;55.902;13.606;2022-12-29T10:03:41;98777.99;;;3.43;100.00
49709;BME280;35601;55.902;13.606;2022-12-29T10:05:58;98781.16;;;3.37;100.00
49709;BME280;35601;55.902;13.606;2022-12-29T10:08:28;98776.26;;;3.60;100.00
49709;BME280;35601;55.902;13.606;2022-12-29T10:10:50;98773.48;;;3.68;100.00
49709;BME280;35601;55.902;13.606;2022-12-29T10:13:20;98775.92;;;3.68;100.00
49709;BME280;35601;55.902;13.606;2022-12-29T10:15:44;98779.25;;;3.83;100.00
49709;BME280;35601;55.902;13.606;2022-12-29T10:18:08;98777.90;;;3.54;100.00
49709;BME280;35601;55.902;13.606;2022-12-29T10:20:30;98780.89;;;3.36;100.00
49709;BME280;35601;55.902;13.606;2022-12-29T10:23:04;98774.21;;;3.75;100.00
49709;BME280;35601;55.902;13.606;2022-12-29T10:25:19;98772.67;;;3.72;100.00
49709;BME280;35601;55.902;13.606;2022-12-29T10:27:42;98757.91;;;3.63;100.00
49709;BME280;35601;55.902;13.606;2022-12-29T10:30:11;98769.39;;;3.78;100.00
49709;BME280;35601;55.902;13.606;2022-12-29T10:32:36;98760.86;;;3.65;100.00
49709;BME280;35601;55.902;13.606;2022-12-29T10:35:00;98758.74;;;4.04;100.00
49709;BME280;35601;55.902;13.606;2022-12-29T10:37:30;98752.20;;;3.60;100.00
49709;BME280;35601;55.902;13.606;2022-12-29T10:39:50;98754.77;;;3.76;100.00
49709;BME280;35601;55.902;13.606;2022-12-29T10:42:20;98748.77;;;3.56;100.00
49709;BME280;35601;55.902;13.606;2022-12-29T10:44:39;98741.51;;;3.68;100.00
49709;BME280;35601;55.902;13.606;2022-12-29T10:47:10;98742.42;;;3.49;100.00
49709;BME280;35601;55.902;13.606;2022-12-29T10:49:32;98752.20;;;3.57;100.00
49709;BME280;35601;55.902;13.606;2022-12-29T10:51:59;98747.89;;;3.75;100.00
49709;BME280;35601;55.902;13.606;2022-12-29T10:54:27;98750.54;;;3.76;100.00
49709;BME280;35601;55.902;13.606;2022-12-29T10:56:51;98750.60;;;3.90;100.00
49709;BME280;35601;55.902;13.606;2022-12-29T10:59:17;98748.84;;;3.90;100.00
49709;BME280;35601;55.902;13.606;2022-12-29T11:01:47;98746.29;;;3.90;100.00
49709;BME280;35601;55.902;13.606;2022-12-29T11:04:08;98753.02;;;3.80;100.00
49709;BME280;35601;55.902;13.606;2022-12-29T11:06:29;98748.03;;;3.90;100.00
49709;BME280;35601;55.902;13.606;2022-12-29T11:08:57;98749.53;;;3.65;100.00
49709;BME280;35601;55.902;13.606;2022-12-29T11:11:24;98750.60;;;3.69;100.00
49709;BME280;35601;55.902;13.606;2022-12-29T11:13:48;98749.14;;;3.84;100.00
49709;BME280;35601;55.902;13.606;2022-12-29T11:16:11;98749.05;;;3.61;100.00
49709;BME280;35601;55.902;13.606;2022-12-29T11:18:37;98760.03;;;3.64;100.00
49709;BME280;35601;55.902;13.606;2022-12-29T11:21:03;98764.21;;;3.72;100.00
49709;BME280;35601;55.902;13.606;2022-12-29T11:23:30;98758.34;;;3.70;100.00
49709;BME280;35601;55.902;13.606;2022-12-29T11:28:16;98752.06;;;3.96;100.00
49709;BME280;35601;55.902;13.606;2022-12-29T11:30:41;98760.83;;;3.87;100.00
49709;BME280;35601;55.902;13.606;2022-12-29T11:33:08;98756.59;;;3.69;100.00
49709;BME280;35601;55.902;13.606;2022-12-29T11:35:36;98757.74;;;3.54;100.00
49709;BME280;35601;55.902;13.606;2022-12-29T11:37:58;98754.98;;;3.54;100.00
49709;BME280;35601;55.902;13.606;2022-12-29T11:40:23;98754.31;;;3.82;100.00
49709;BME280;35601;55.902;13.606;2022-12-29T11:42:51;98757.70;;;3.77;100.00
49709;BME280;35601;55.902;13.606;2022-12-29T11:45:16;98750.15;;;4.12;100.00
49709;BME280;35601;55.902;13.606;2022-12-29T11:47:38;98752.36;;;4.10;100.00
49709;BME280;35601;55.902;13.606;2022-12-29T11:50:06;98748.44;;;4.18;99.98
49709;BME280;35601;55.902;13.606;2022-12-29T11:52:31;98747.77;;;4.23;100.00
49709;BME280;35601;55.902;13.606;2022-12-29T11:54:55;98754.86;;;4.22;99.69
49709;BME280;35601;55.902;13.606;2022-12-29T11:57:19;98752.97;;;4.13;98.64
49709;BME280;35601;55.902;13.606;2022-12-29T11:59:49;98751.97;;;4.47;98.19
49709;BME280;35601;55.902;13.606;2022-12-29T12:02:22;98754.21;;;4.64;96.79
49709;BME280;35601;55.902;13.606;2022-12-29T12:04:37;98749.62;;;4.39;96.43
49709;BME280;35601;55.902;13.606;2022-12-29T12:07:05;98753.53;;;4.45;97.51
49709;BME280;35601;55.902;13.606;2022-12-29T12:09:31;98759.67;;;4.58;97.01
49709;BME280;35601;55.902;13.606;2022-12-29T12:11:52;98757.05;;;4.53;95.88
49709;BME280;35601;55.902;13.606;2022-12-29T12:14:21;98754.82;;;4.28;96.47
49709;BME280;35601;55.902;13.606;2022-12-29T12:16:47;98751.30;;;4.46;97.65
49709;BME280;35601;55.902;13.606;2022-12-29T12:19:14;98757.04;;;4.26;97.27
49709;BME280;35601;55.902;13.606;2022-12-29T12:21:38;98755.99;;;4.25;96.92
49709;BME280;35601;55.902;13.606;2022-12-29T12:24:16;98748.15;;;4.07;98.25
49709;BME280;35601;55.902;13.606;2022-12-29T12:26:30;98757.59;;;4.25;98.52
49709;BME280;35601;55.902;13.606;2022-12-29T12:28:54;98759.26;;;4.21;97.12
49709;BME280;35601;55.902;13.606;2022-12-29T12:31:19;98761.61;;;4.68;96.02
49709;BME280;35601;55.902;13.606;2022-12-29T12:33:42;98755.32;;;4.34;95.54
49709;BME280;35601;55.902;13.606;2022-12-29T12:36:19;98760.55;;;4.41;95.27
49709;BME280;35601;55.902;13.606;2022-12-29T12:38:37;98761.94;;;4.42;94.99
49709;BME280;35601;55.902;13.606;2022-12-29T12:41:05;98758.62;;;4.54;94.55
49709;BME280;35601;55.902;13.606;2022-12-29T12:43:34;98761.90;;;4.47;95.02
49709;BME280;35601;55.902;13.606;2022-12-29T12:45:52;98769.08;;;4.48;95.47